createdAt,value
2019-03-19T00:01:17.208Z,38.80
2019-03-19T00:03:43.181Z,38.80
2019-03-19T00:06:09.136Z,38.70
2019-03-19T00:08:35.092Z,38.60
2019-03-19T00:11:01.048Z,38.70
2019-03-19T00:13:26.992Z,38.70
2019-03-19T00:15:52.952Z,38.70
2019-03-19T00:18:18.912Z,38.70
2019-03-19T00:20:44.902Z,39.30
2019-03-19T00:23:10.867Z,38.70
2019-03-19T00:25:36.903Z,38.70
2019-03-19T00:28:02.858Z,38.60
2019-03-19T00:30:28.800Z,38.60
2019-03-19T00:32:54.753Z,38.50
2019-03-19T00:35:20.723Z,39.30
2019-03-19T00:37:46.650Z,38.40
2019-03-19T00:40:12.582Z,38.40
2019-03-19T00:42:38.533Z,38.50
2019-03-19T00:45:04.462Z,38.40
2019-03-19T00:47:30.419Z,38.40
2019-03-19T00:49:56.377Z,38.40
2019-03-19T00:52:22.328Z,38.40
2019-03-19T00:54:48.275Z,38.30
2019-03-19T00:57:14.359Z,38.30
2019-03-19T00:59:40.528Z,38.20
2019-03-19T01:02:06.488Z,38.20
2019-03-19T01:04:32.427Z,38.20
2019-03-19T01:06:58.406Z,38.40
2019-03-19T01:09:39.557Z,38.40
2019-03-19T01:12:05.624Z,38.40
2019-03-19T01:14:31.559Z,38.30
2019-03-19T01:16:57.523Z,38.40
2019-03-19T01:19:23.453Z,38.30
2019-03-19T01:21:49.402Z,38.40
2019-03-19T01:24:15.345Z,38.40
2019-03-19T01:26:41.307Z,38.30
2019-03-19T01:29:07.233Z,38.40
2019-03-19T01:31:33.191Z,38.40
2019-03-19T01:33:59.141Z,38.40
2019-03-19T01:36:25.108Z,38.40
2019-03-19T01:38:51.076Z,38.50
2019-03-19T01:41:17.028Z,38.40
2019-03-19T01:43:42.969Z,38.40
2019-03-19T01:46:08.923Z,38.40
2019-03-19T01:48:34.876Z,38.40
2019-03-19T01:51:00.819Z,38.40
2019-03-19T01:53:26.754Z,38.40
2019-03-19T01:55:52.698Z,38.00
2019-03-19T01:58:18.675Z,38.30
2019-03-19T02:00:44.711Z,38.20
2019-03-19T02:03:10.661Z,38.20
2019-03-19T02:05:36.611Z,38.20
2019-03-19T02:08:02.663Z,38.10
2019-03-19T02:10:28.619Z,38.10
2019-03-19T02:12:54.660Z,38.20
2019-03-19T02:15:20.601Z,38.10
2019-03-19T02:17:46.559Z,38.00
2019-03-19T02:20:12.502Z,38.00
2019-03-19T02:22:38.448Z,37.90
2019-03-19T02:25:04.508Z,37.90
2019-03-19T02:27:30.553Z,38.00
2019-03-19T02:29:56.512Z,38.00
2019-03-19T02:32:22.562Z,38.10
2019-03-19T02:34:48.554Z,38.00
2019-03-19T02:37:14.558Z,38.10
2019-03-19T02:39:40.986Z,38.40
2019-03-19T02:42:06.923Z,38.10
2019-03-19T02:44:32.856Z,38.10
2019-03-19T02:46:58.811Z,38.00
2019-03-19T02:49:24.851Z,38.10
2019-03-19T02:51:50.802Z,38.10
2019-03-19T02:54:16.854Z,38.00
2019-03-19T02:56:42.825Z,38.00
2019-03-19T02:59:08.760Z,38.10
2019-03-19T03:01:34.739Z,38.20
2019-03-19T03:04:00.760Z,38.10
2019-03-19T03:06:26.687Z,38.00
2019-03-19T03:08:52.645Z,38.00
2019-03-19T03:11:18.597Z,37.90
2019-03-19T03:13:44.532Z,38.00
2019-03-19T03:16:10.498Z,37.80
2019-03-19T03:18:36.445Z,37.90
2019-03-19T03:21:02.374Z,37.90
2019-03-19T03:23:28.311Z,37.80
2019-03-19T03:25:54.261Z,37.80
2019-03-19T03:28:20.199Z,37.80
2019-03-19T03:30:46.149Z,37.70
2019-03-19T03:33:12.202Z,37.60
2019-03-19T03:35:38.202Z,37.60
2019-03-19T03:38:04.155Z,37.60
2019-03-19T03:40:30.119Z,37.60
2019-03-19T03:42:56.197Z,37.70
2019-03-19T03:45:22.234Z,37.60
2019-03-19T03:47:48.289Z,37.70
2019-03-19T03:50:14.221Z,37.80
2019-03-19T03:52:40.194Z,37.70
2019-03-19T03:55:06.144Z,37.80
2019-03-19T03:57:32.183Z,37.70
2019-03-19T03:59:58.241Z,37.90
2019-03-19T04:02:24.194Z,37.90
2019-03-19T04:04:50.133Z,37.80
2019-03-19T04:07:16.093Z,37.80
2019-03-19T04:09:42.044Z,37.80
2019-03-19T04:12:07.985Z,37.80
2019-03-19T04:14:33.936Z,37.90
2019-03-19T04:16:59.889Z,37.90
2019-03-19T04:19:25.851Z,37.70
2019-03-19T04:21:51.904Z,37.80
2019-03-19T04:24:17.849Z,37.70
2019-03-19T04:26:43.788Z,37.70
2019-03-19T04:29:09.773Z,37.60
2019-03-19T04:31:35.720Z,37.70
2019-03-19T04:34:01.665Z,37.70
2019-03-19T04:36:27.636Z,37.60
2019-03-19T04:38:53.583Z,37.60
2019-03-19T04:41:19.553Z,37.60
2019-03-19T04:43:45.501Z,37.60
2019-03-19T04:46:11.440Z,37.60
2019-03-19T04:48:37.386Z,37.70
2019-03-19T04:51:03.325Z,37.70
2019-03-19T04:53:29.302Z,37.60
2019-03-19T04:55:55.310Z,37.70
2019-03-19T04:58:21.307Z,37.70
2019-03-19T05:00:47.246Z,37.70
2019-03-19T05:03:13.186Z,37.70
2019-03-19T05:05:39.121Z,37.60
2019-03-19T05:08:05.056Z,37.70
2019-03-19T05:10:31.012Z,37.70
2019-03-19T05:12:56.952Z,37.70
2019-03-19T05:15:22.922Z,37.70
2019-03-19T05:17:48.877Z,37.80
2019-03-19T05:20:14.825Z,37.80
2019-03-19T05:22:40.785Z,37.90
2019-03-19T05:25:06.824Z,37.80
2019-03-19T05:27:37.324Z,37.80
2019-03-19T05:30:00.648Z,37.70
2019-03-19T05:32:26.601Z,37.60
2019-03-19T05:34:52.555Z,37.60
2019-03-19T05:37:18.510Z,37.60
2019-03-19T05:39:44.519Z,37.60
2019-03-19T05:42:10.594Z,37.40
2019-03-19T05:44:36.529Z,38.10
2019-03-19T05:47:02.487Z,38.30
2019-03-19T05:49:29.061Z,38.30
2019-03-19T05:51:55.021Z,38.30
2019-03-19T05:54:20.992Z,38.20
2019-03-19T05:56:46.921Z,38.10
2019-03-19T05:59:12.866Z,38.20
2019-03-19T06:01:38.828Z,38.20
2019-03-19T06:04:04.979Z,38.10
2019-03-19T06:06:30.931Z,38.30
2019-03-19T06:08:56.898Z,37.70
2019-03-19T06:11:22.851Z,38.40
2019-03-19T06:13:48.893Z,38.50
2019-03-19T06:16:14.846Z,38.60
2019-03-19T06:18:40.810Z,38.70
2019-03-19T06:21:06.851Z,38.80
2019-03-19T06:23:32.827Z,38.70
2019-03-19T06:25:58.767Z,38.70
2019-03-19T06:28:24.693Z,38.80
2019-03-19T06:30:50.646Z,38.80
2019-03-19T06:33:16.585Z,38.80
2019-03-19T06:35:42.519Z,38.80
2019-03-19T06:38:08.492Z,38.90
2019-03-19T06:40:34.513Z,38.80
2019-03-19T06:43:00.455Z,38.70
2019-03-19T06:45:26.416Z,38.60
2019-03-19T06:47:52.340Z,38.50
2019-03-19T06:50:18.301Z,38.50
2019-03-19T06:52:44.273Z,38.50
2019-03-19T06:55:10.217Z,38.40
2019-03-19T06:57:39.436Z,38.30
2019-03-19T07:00:04.127Z,38.40
2019-03-19T07:02:30.062Z,38.20
2019-03-19T07:04:55.991Z,38.30
2019-03-19T07:07:21.949Z,38.20
2019-03-19T07:09:48.064Z,38.10
2019-03-19T07:12:14.013Z,38.10
2019-03-19T07:14:39.967Z,38.10
2019-03-19T07:17:05.893Z,38.00
2019-03-19T07:19:31.856Z,38.10
2019-03-19T07:21:57.800Z,38.00
2019-03-19T07:24:23.753Z,37.90
2019-03-19T07:26:49.701Z,37.90
2019-03-19T07:29:16.114Z,37.90
2019-03-19T07:31:42.057Z,37.80
2019-03-19T07:34:08.001Z,37.80
2019-03-19T07:36:33.952Z,37.80
2019-03-19T07:38:59.909Z,37.70
2019-03-19T07:41:25.852Z,37.60
2019-03-19T07:43:51.893Z,37.60
2019-03-19T07:46:17.864Z,37.60
2019-03-19T07:48:45.806Z,37.60
2019-03-19T07:51:11.769Z,37.60
2019-03-19T07:53:37.712Z,37.50
2019-03-19T07:56:03.678Z,37.50
2019-03-19T07:58:40.518Z,37.50
2019-03-19T08:00:57.568Z,37.60
2019-03-19T08:03:23.510Z,37.70
2019-03-19T08:05:49.454Z,37.70
2019-03-19T08:08:15.387Z,37.90
2019-03-19T08:10:41.318Z,37.90
2019-03-19T08:13:07.294Z,38.00
2019-03-19T08:15:33.385Z,38.00
2019-03-19T08:17:59.326Z,38.20
2019-03-19T08:20:25.274Z,38.30
2019-03-19T08:22:51.251Z,38.30
2019-03-19T08:25:17.204Z,38.40
2019-03-19T08:27:43.183Z,38.50
2019-03-19T08:30:09.204Z,38.50
2019-03-19T08:32:35.158Z,38.50
2019-03-19T08:35:01.118Z,38.40
2019-03-19T08:37:27.050Z,38.50
2019-03-19T08:39:53.007Z,38.40
2019-03-19T08:42:18.949Z,38.40
2019-03-19T08:44:44.894Z,38.40
2019-03-19T08:47:10.924Z,39.00
2019-03-19T08:49:37.160Z,38.50
2019-03-19T08:52:03.118Z,38.40
2019-03-19T08:54:29.062Z,38.40
2019-03-19T08:56:55.007Z,38.40
2019-03-19T08:59:20.952Z,38.40
2019-03-19T09:01:47.457Z,38.40
2019-03-19T09:04:13.565Z,39.10
2019-03-19T09:06:39.546Z,38.30
2019-03-19T09:09:05.620Z,38.40
2019-03-19T09:11:31.560Z,38.30
2019-03-19T09:13:57.494Z,38.30
2019-03-19T09:16:23.455Z,38.40
2019-03-19T09:18:49.404Z,38.30
2019-03-19T09:21:15.360Z,38.30
2019-03-19T09:23:41.294Z,38.40
2019-03-19T09:26:07.298Z,38.40
2019-03-19T09:28:33.326Z,38.40
2019-03-19T09:30:59.292Z,38.30
2019-03-19T09:33:25.246Z,38.70
2019-03-19T09:35:51.166Z,38.30
2019-03-19T09:38:17.131Z,38.30
2019-03-19T09:40:43.162Z,38.30
2019-03-19T09:43:09.116Z,38.30
2019-03-19T09:45:35.036Z,38.40
2019-03-19T09:48:00.996Z,38.30
2019-03-19T09:50:26.937Z,38.30
2019-03-19T09:52:52.883Z,38.30
2019-03-19T09:55:18.822Z,38.40
2019-03-19T09:57:44.762Z,38.40
2019-03-19T10:00:10.720Z,38.40
2019-03-19T10:02:36.654Z,38.30
2019-03-19T10:05:02.600Z,38.40
2019-03-19T10:07:28.532Z,38.30
2019-03-19T10:09:54.484Z,38.90
2019-03-19T10:12:20.419Z,38.30
2019-03-19T10:14:46.400Z,38.20
2019-03-19T10:17:12.330Z,38.30
2019-03-19T10:19:38.280Z,38.20
2019-03-19T10:22:04.216Z,38.20
2019-03-19T10:24:30.217Z,38.20
2019-03-19T10:26:56.266Z,38.40
2019-03-19T10:29:22.209Z,38.50
2019-03-19T10:31:48.158Z,38.80
2019-03-19T10:34:14.090Z,38.90
2019-03-19T10:36:40.065Z,38.90
2019-03-19T10:39:06.039Z,38.70
2019-03-19T10:41:32.014Z,38.60
2019-03-19T10:43:57.961Z,38.70
2019-03-19T10:46:23.998Z,38.50
2019-03-19T10:48:50.022Z,38.50
2019-03-19T10:51:15.961Z,38.50
2019-03-19T10:53:41.908Z,38.40
2019-03-19T10:56:07.870Z,38.30
2019-03-19T10:58:33.810Z,38.30
2019-03-19T11:00:59.741Z,38.30
2019-03-19T11:03:25.705Z,38.20
2019-03-19T11:05:51.629Z,38.10
2019-03-19T11:08:17.599Z,38.10
2019-03-19T11:10:43.537Z,38.10
2019-03-19T11:13:09.507Z,38.00
2019-03-19T11:15:35.449Z,38.00
2019-03-19T11:18:01.419Z,37.90
2019-03-19T11:20:27.493Z,37.90
2019-03-19T11:22:53.440Z,37.90
2019-03-19T11:25:19.387Z,37.80
2019-03-19T11:27:45.329Z,37.70
2019-03-19T11:30:11.294Z,37.90
2019-03-19T11:32:37.227Z,37.70
2019-03-19T11:35:03.181Z,37.70
2019-03-19T11:37:29.146Z,37.70
2019-03-19T11:39:55.169Z,37.70
2019-03-19T11:42:21.134Z,37.60
2019-03-19T11:44:47.099Z,37.60
2019-03-19T11:47:13.033Z,37.60
2019-03-19T11:49:39.300Z,37.60
2019-03-19T11:52:05.263Z,37.70
2019-03-19T11:54:31.187Z,37.60
2019-03-19T11:56:57.132Z,37.60
2019-03-19T11:59:23.121Z,37.60
2019-03-19T12:01:49.141Z,37.20
2019-03-19T12:04:15.100Z,37.70
2019-03-19T12:06:41.033Z,37.60
2019-03-19T12:09:06.964Z,37.70
2019-03-19T12:11:32.920Z,37.80
2019-03-19T12:13:58.876Z,37.80
2019-03-19T12:16:24.851Z,37.70
2019-03-19T12:18:50.897Z,37.70
2019-03-19T12:21:16.830Z,37.70
2019-03-19T12:23:42.802Z,37.70
2019-03-19T12:26:08.838Z,37.70
2019-03-19T12:28:39.646Z,37.70
2019-03-19T12:31:02.721Z,37.70
2019-03-19T12:33:28.648Z,37.80
2019-03-19T12:35:54.590Z,37.80
2019-03-19T12:38:20.531Z,38.00
2019-03-19T12:40:46.490Z,38.10
2019-03-19T12:43:12.433Z,38.20
2019-03-19T12:45:38.391Z,38.10
2019-03-19T12:48:04.374Z,38.20
2019-03-19T12:50:30.402Z,38.20
2019-03-19T12:52:56.338Z,38.30
2019-03-19T12:55:22.282Z,38.40
2019-03-19T12:57:48.220Z,38.40
2019-03-19T13:00:14.155Z,38.40
2019-03-19T13:02:40.205Z,38.40
2019-03-19T13:05:12.509Z,38.30
2019-03-19T13:07:38.474Z,37.70
2019-03-19T13:10:04.412Z,38.10
2019-03-19T13:12:30.413Z,38.10
2019-03-19T13:14:56.361Z,38.10
2019-03-19T13:17:22.331Z,38.00
2019-03-19T13:19:48.926Z,38.10
2019-03-19T13:22:15.004Z,38.10
2019-03-19T13:24:40.936Z,38.10
2019-03-19T13:27:06.911Z,38.10
2019-03-19T13:29:32.988Z,38.20
2019-03-19T13:31:59.054Z,38.10
2019-03-19T13:34:24.998Z,38.10
2019-03-19T13:36:50.941Z,38.10
2019-03-19T13:39:16.909Z,38.10
2019-03-19T13:41:42.850Z,38.30
2019-03-19T13:44:11.206Z,37.80
2019-03-19T13:46:36.660Z,38.30
2019-03-19T13:49:02.617Z,38.40
2019-03-19T13:51:28.579Z,39.00
2019-03-19T13:53:54.555Z,38.30
2019-03-19T13:56:20.520Z,38.30
2019-03-19T13:58:46.500Z,38.30
2019-03-19T14:01:12.456Z,38.30
2019-03-19T14:03:38.410Z,38.30
2019-03-19T14:06:04.382Z,38.30
2019-03-19T14:08:30.602Z,38.30
2019-03-19T14:10:56.564Z,38.40
2019-03-19T14:13:22.503Z,38.50
2019-03-19T14:15:48.452Z,38.40
2019-03-19T14:18:16.829Z,38.40
2019-03-19T14:20:42.770Z,38.30
2019-03-19T14:23:08.713Z,38.30
2019-03-19T14:25:34.661Z,38.30
2019-03-19T14:28:00.612Z,38.20
2019-03-19T14:30:26.578Z,38.10
2019-03-19T14:32:52.534Z,38.10
2019-03-19T14:35:18.474Z,38.10
2019-03-19T14:37:46.518Z,38.10
2019-03-19T14:40:14.547Z,37.90
2019-03-19T14:42:40.570Z,38.00
2019-03-19T14:45:06.606Z,38.10
2019-03-19T14:47:32.662Z,38.10
2019-03-19T14:49:58.623Z,38.10
2019-03-19T14:52:24.588Z,38.20
2019-03-19T14:54:50.536Z,38.10
2019-03-19T14:57:16.523Z,38.10
2019-03-19T14:59:42.483Z,38.20
2019-03-19T15:02:08.413Z,38.10
2019-03-19T15:04:34.392Z,38.10
2019-03-19T15:07:00.344Z,38.20
2019-03-19T15:09:26.899Z,38.20
2019-03-19T15:11:52.993Z,38.10
2019-03-19T15:14:18.976Z,38.10
2019-03-19T15:16:45.040Z,38.20
2019-03-19T15:19:11.115Z,38.20
2019-03-19T15:21:37.162Z,38.20
2019-03-19T15:24:03.117Z,38.10
2019-03-19T15:26:29.067Z,38.10
2019-03-19T15:28:55.038Z,38.00
2019-03-19T15:31:29.535Z,38.10
2019-03-19T15:33:48.933Z,38.10
2019-03-19T15:36:14.913Z,37.90
2019-03-19T15:38:40.997Z,37.90
2019-03-19T15:41:06.934Z,37.80
2019-03-19T15:43:32.885Z,37.80
2019-03-19T15:45:58.845Z,37.70
2019-03-19T15:48:24.824Z,37.60
2019-03-19T15:50:50.822Z,37.60
2019-03-19T15:53:16.841Z,37.60
2019-03-19T15:55:42.864Z,38.30
2019-03-19T15:58:08.923Z,37.60
2019-03-19T16:00:34.982Z,37.60
2019-03-19T16:03:01.041Z,37.60
2019-03-19T16:05:26.965Z,37.80
2019-03-19T16:07:52.901Z,37.70
2019-03-19T16:10:18.853Z,37.70
2019-03-19T16:12:44.836Z,37.70
2019-03-19T16:15:10.904Z,37.70
2019-03-19T16:17:37.001Z,37.70
2019-03-19T16:20:03.054Z,37.60
2019-03-19T16:22:29.112Z,37.60
2019-03-19T16:24:55.057Z,38.30
2019-03-19T16:27:21.015Z,37.60
2019-03-19T16:29:47.244Z,37.60
2019-03-19T16:32:13.272Z,37.70
2019-03-19T16:34:39.321Z,37.60
2019-03-19T16:37:05.275Z,37.60
2019-03-19T16:39:31.249Z,37.60
2019-03-19T16:41:57.324Z,37.50
2019-03-19T16:44:23.414Z,37.50
2019-03-19T16:46:49.364Z,37.40
2019-03-19T16:49:15.763Z,37.50
2019-03-19T16:51:41.823Z,37.40
2019-03-19T16:54:07.885Z,37.40
2019-03-19T16:56:33.833Z,37.40
2019-03-19T16:58:59.785Z,37.40
2019-03-19T17:01:25.741Z,37.40
2019-03-19T17:03:51.779Z,37.50
2019-03-19T17:06:17.745Z,37.30
2019-03-19T17:08:43.700Z,37.30
2019-03-19T17:11:09.674Z,37.30
2019-03-19T17:13:35.655Z,37.20
2019-03-19T17:16:01.730Z,37.20
2019-03-19T17:18:27.666Z,37.20
2019-03-19T17:20:53.635Z,37.20
2019-03-19T17:23:19.619Z,37.20
2019-03-19T17:25:45.614Z,37.20
2019-03-19T17:28:21.878Z,37.10
2019-03-19T17:30:39.527Z,37.30
2019-03-19T17:33:05.490Z,37.30
2019-03-19T17:35:31.514Z,37.20
2019-03-19T17:37:57.499Z,37.30
2019-03-19T17:40:23.452Z,37.20
2019-03-19T17:42:49.401Z,37.30
2019-03-19T17:45:15.385Z,37.40
2019-03-19T17:47:41.434Z,37.30
2019-03-19T17:50:07.387Z,37.30
2019-03-19T17:52:33.374Z,37.30
2019-03-19T17:54:59.499Z,37.20
2019-03-19T17:57:25.477Z,37.20
2019-03-19T17:59:51.439Z,37.30
2019-03-19T18:02:23.905Z,37.30
2019-03-19T18:04:45.254Z,37.20
2019-03-19T18:07:11.312Z,37.20
2019-03-19T18:09:37.511Z,37.10
2019-03-19T18:12:03.458Z,37.00
2019-03-19T18:14:29.404Z,37.00
2019-03-19T18:16:55.365Z,36.90
2019-03-19T18:19:21.446Z,37.20
2019-03-19T18:21:47.548Z,36.80
2019-03-19T18:24:13.527Z,36.70
2019-03-19T18:26:39.567Z,36.60
2019-03-19T18:29:05.552Z,36.70
2019-03-19T18:31:31.482Z,36.80
2019-03-19T18:33:57.442Z,36.80
2019-03-19T18:36:23.394Z,36.80
2019-03-19T18:38:49.330Z,36.80
2019-03-19T18:41:15.292Z,36.80
2019-03-19T18:43:41.222Z,36.80
2019-03-19T18:46:07.171Z,36.70
2019-03-19T18:48:33.123Z,36.70
2019-03-19T18:50:59.060Z,36.30
2019-03-19T18:53:25.037Z,35.60
2019-03-19T18:55:51.007Z,35.50
2019-03-19T18:58:16.970Z,35.30
2019-03-19T19:00:42.931Z,35.10
2019-03-19T19:03:08.998Z,35.10
2019-03-19T19:05:34.985Z,35.10
2019-03-19T19:08:00.957Z,35.10
2019-03-19T19:10:26.903Z,35.10
2019-03-19T19:12:52.905Z,35.20
2019-03-19T19:15:18.971Z,35.00
2019-03-19T19:17:45.040Z,35.30
2019-03-19T19:20:11.016Z,35.40
2019-03-19T19:22:36.991Z,35.50
2019-03-19T19:25:02.966Z,36.30
2019-03-19T19:27:29.053Z,35.60
2019-03-19T19:29:55.004Z,35.70
2019-03-19T19:32:20.968Z,35.60
2019-03-19T19:34:46.959Z,35.60
2019-03-19T19:37:12.921Z,35.40
2019-03-19T19:39:38.907Z,35.50
2019-03-19T19:42:04.951Z,35.30
2019-03-19T19:44:30.931Z,35.30
2019-03-19T19:46:56.896Z,35.30
2019-03-19T19:49:42.721Z,35.20
2019-03-19T19:52:08.712Z,35.00
2019-03-19T19:54:34.789Z,35.20
2019-03-19T19:57:00.728Z,35.00
2019-03-19T19:59:26.861Z,35.00
2019-03-19T20:01:52.809Z,35.10
2019-03-19T20:04:18.758Z,35.00
2019-03-19T20:06:44.712Z,35.10
2019-03-19T20:09:10.741Z,35.10
2019-03-19T20:11:38.592Z,35.10
2019-03-19T20:14:04.829Z,35.20
2019-03-19T20:16:30.791Z,35.20
2019-03-19T20:18:56.780Z,35.20
2019-03-19T20:21:22.873Z,35.20
2019-03-19T20:23:48.823Z,35.20
2019-03-19T20:26:14.773Z,35.20
2019-03-19T20:28:40.738Z,35.10
2019-03-19T20:31:06.717Z,35.10
2019-03-19T20:33:33.271Z,35.30
2019-03-19T20:36:00.007Z,35.20
2019-03-19T20:38:25.978Z,35.10
2019-03-19T20:40:51.963Z,35.20
2019-03-19T20:43:18.035Z,35.20
2019-03-19T20:45:43.998Z,35.20
2019-03-19T20:48:09.937Z,35.20
2019-03-19T20:50:35.928Z,35.10
2019-03-19T20:53:01.948Z,35.10
2019-03-19T20:55:27.920Z,35.10
2019-03-19T20:57:53.871Z,35.00
2019-03-19T21:00:19.929Z,35.00
2019-03-19T21:02:45.912Z,34.90
2019-03-19T21:05:11.875Z,35.00
2019-03-19T21:07:37.925Z,35.00
2019-03-19T21:10:03.989Z,35.10
2019-03-19T21:12:29.937Z,35.00
2019-03-19T21:14:56.032Z,35.10
2019-03-19T21:17:22.021Z,35.10
2019-03-19T21:19:47.992Z,35.00
2019-03-19T21:22:13.937Z,35.20
2019-03-19T21:24:39.898Z,36.10
2019-03-19T21:27:05.852Z,35.40
2019-03-19T21:29:32.228Z,35.50
2019-03-19T21:31:58.197Z,35.60
2019-03-19T21:34:24.256Z,35.80
2019-03-19T21:36:50.226Z,35.80
2019-03-19T21:39:16.200Z,35.80
2019-03-19T21:41:42.151Z,35.80
2019-03-19T21:44:08.076Z,35.90
2019-03-19T21:46:34.058Z,35.80
2019-03-19T21:49:00.007Z,35.80
2019-03-19T21:51:26.010Z,35.80
2019-03-19T21:53:52.029Z,35.80
2019-03-19T21:56:17.970Z,35.80
2019-03-19T21:58:43.898Z,35.80
2019-03-19T22:01:09.866Z,35.70
2019-03-19T22:03:35.802Z,35.80
2019-03-19T22:06:01.768Z,35.80
2019-03-19T22:08:27.709Z,35.80
2019-03-19T22:10:53.664Z,35.80
2019-03-19T22:13:19.612Z,35.80
2019-03-19T22:15:45.560Z,35.80
2019-03-19T22:18:11.547Z,35.80
2019-03-19T22:20:37.502Z,35.80
2019-03-19T22:23:03.475Z,35.80
2019-03-19T22:25:29.402Z,35.90
2019-03-19T22:27:55.364Z,35.90
2019-03-19T22:30:21.335Z,35.80
2019-03-19T22:32:47.268Z,35.90
2019-03-19T22:35:13.231Z,35.80
2019-03-19T22:37:39.185Z,35.80
2019-03-19T22:40:05.164Z,35.80
2019-03-19T22:42:31.116Z,35.80
2019-03-19T22:44:57.154Z,35.80
2019-03-19T22:47:23.090Z,35.70
2019-03-19T22:49:49.092Z,35.70
2019-03-19T22:52:15.065Z,35.40
2019-03-19T22:54:41.000Z,35.60
2019-03-19T22:57:06.999Z,35.70
2019-03-19T22:59:33.026Z,35.70
2019-03-19T23:01:59.013Z,35.70
2019-03-19T23:04:27.565Z,35.70
2019-03-19T23:06:52.794Z,35.70
2019-03-19T23:09:18.774Z,35.60
2019-03-19T23:11:44.764Z,35.60
2019-03-19T23:14:10.866Z,35.70
2019-03-19T23:16:36.932Z,35.70
2019-03-19T23:19:02.919Z,35.60
2019-03-19T23:21:29.014Z,36.20
2019-03-19T23:23:54.982Z,35.50
2019-03-19T23:26:20.966Z,35.60
2019-03-19T23:28:46.981Z,35.50
2019-03-19T23:31:12.964Z,35.70
2019-03-19T23:33:38.925Z,35.60
2019-03-19T23:36:05.741Z,35.80
2019-03-19T23:38:31.773Z,35.70
2019-03-19T23:40:57.765Z,35.70
2019-03-19T23:43:23.771Z,35.70
2019-03-19T23:45:49.833Z,35.70
2019-03-19T23:48:15.802Z,35.70
2019-03-19T23:50:41.816Z,35.70
2019-03-19T23:53:07.822Z,35.70
2019-03-19T23:55:33.895Z,35.70
2019-03-19T23:57:59.871Z,35.80
